sensor_id;sensor_type;location;lat;lon;timestamp;P1;durP1;ratioP1;P2;durP2;ratioP2
52642;SDS011;38531;53.296;6.614;2023-02-23T00:01:43;23.23;;;10.10;;
52642;SDS011;38531;53.296;6.614;2023-02-23T00:04:09;25.73;;;11.52;;
52642;SDS011;38531;53.296;6.614;2023-02-23T00:06:35;24.30;;;10.38;;
52642;SDS011;38531;53.296;6.614;2023-02-23T00:09:02;24.20;;;11.13;;
52642;SDS011;38531;53.296;6.614;2023-02-23T00:11:36;24.40;;;11.30;;
52642;SDS011;38531;53.296;6.614;2023-02-23T00:14:02;29.83;;;12.77;;
52642;SDS011;38531;53.296;6.614;2023-02-23T00:16:28;27.90;;;11.35;;
52642;SDS011;38531;53.296;6.614;2023-02-23T00:18:55;23.13;;;9.77;;
52642;SDS011;38531;53.296;6.614;2023-02-23T00:21:28;25.95;;;10.35;;
52642;SDS011;38531;53.296;6.614;2023-02-23T00:24:09;22.45;;;10.80;;
52642;SDS011;38531;53.296;6.614;2023-02-23T00:26:37;24.35;;;10.93;;
52642;SDS011;38531;53.296;6.614;2023-02-23T00:29:13;24.42;;;11.55;;
52642;SDS011;38531;53.296;6.614;2023-02-23T00:31:42;23.35;;;11.77;;
52642;SDS011;38531;53.296;6.614;2023-02-23T00:34:09;27.67;;;11.50;;
52642;SDS011;38531;53.296;6.614;2023-02-23T00:36:36;27.95;;;13.38;;
52642;SDS011;38531;53.296;6.614;2023-02-23T00:39:06;26.48;;;13.02;;
52642;SDS011;38531;53.296;6.614;2023-02-23T00:42:01;29.25;;;13.00;;
52642;SDS011;38531;53.296;6.614;2023-02-23T00:44:27;26.00;;;12.13;;
52642;SDS011;38531;53.296;6.614;2023-02-23T00:46:52;25.58;;;11.77;;
52642;SDS011;38531;53.296;6.614;2023-02-23T00:49:19;25.42;;;11.82;;
52642;SDS011;38531;53.296;6.614;2023-02-23T00:51:47;23.33;;;10.55;;
52642;SDS011;38531;53.296;6.614;2023-02-23T00:54:15;27.27;;;10.15;;
52642;SDS011;38531;53.296;6.614;2023-02-23T00:56:42;22.38;;;11.27;;
52642;SDS011;38531;53.296;6.614;2023-02-23T00:59:09;25.40;;;10.27;;
52642;SDS011;38531;53.296;6.614;2023-02-23T01:01:36;27.30;;;12.35;;
52642;SDS011;38531;53.296;6.614;2023-02-23T01:04:02;40.30;;;18.50;;
52642;SDS011;38531;53.296;6.614;2023-02-23T01:06:28;40.60;;;17.75;;
52642;SDS011;38531;53.296;6.614;2023-02-23T01:08:55;35.22;;;15.45;;
52642;SDS011;38531;53.296;6.614;2023-02-23T01:11:21;37.13;;;16.90;;
52642;SDS011;38531;53.296;6.614;2023-02-23T01:13:52;38.55;;;17.02;;
52642;SDS011;38531;53.296;6.614;2023-02-23T01:16:20;33.90;;;15.13;;
52642;SDS011;38531;53.296;6.614;2023-02-23T01:18:50;30.42;;;12.88;;
52642;SDS011;38531;53.296;6.614;2023-02-23T01:21:29;34.35;;;14.80;;
52642;SDS011;38531;53.296;6.614;2023-02-23T01:24:00;26.63;;;13.02;;
52642;SDS011;38531;53.296;6.614;2023-02-23T01:26:27;23.17;;;11.38;;
52642;SDS011;38531;53.296;6.614;2023-02-23T01:28:55;23.58;;;11.48;;
52642;SDS011;38531;53.296;6.614;2023-02-23T01:31:26;35.15;;;16.70;;
52642;SDS011;38531;53.296;6.614;2023-02-23T01:34:00;29.02;;;14.15;;
52642;SDS011;38531;53.296;6.614;2023-02-23T01:36:32;29.23;;;13.05;;
52642;SDS011;38531;53.296;6.614;2023-02-23T01:38:59;27.45;;;13.25;;
52642;SDS011;38531;53.296;6.614;2023-02-23T01:41:28;25.15;;;12.18;;
52642;SDS011;38531;53.296;6.614;2023-02-23T01:46:31;30.80;;;13.60;;
52642;SDS011;38531;53.296;6.614;2023-02-23T01:48:58;33.03;;;14.60;;
52642;SDS011;38531;53.296;6.614;2023-02-23T01:51:29;37.25;;;14.77;;
52642;SDS011;38531;53.296;6.614;2023-02-23T01:54:03;37.97;;;16.00;;
52642;SDS011;38531;53.296;6.614;2023-02-23T01:56:35;40.55;;;16.98;;
52642;SDS011;38531;53.296;6.614;2023-02-23T01:59:09;37.72;;;15.15;;
52642;SDS011;38531;53.296;6.614;2023-02-23T02:01:39;36.50;;;14.55;;
52642;SDS011;38531;53.296;6.614;2023-02-23T02:04:06;34.85;;;14.80;;
52642;SDS011;38531;53.296;6.614;2023-02-23T02:06:34;30.38;;;12.80;;
52642;SDS011;38531;53.296;6.614;2023-02-23T02:09:09;27.27;;;12.32;;
52642;SDS011;38531;53.296;6.614;2023-02-23T02:11:41;27.98;;;11.82;;
52642;SDS011;38531;53.296;6.614;2023-02-23T02:14:17;28.85;;;12.15;;
52642;SDS011;38531;53.296;6.614;2023-02-23T02:19:31;29.33;;;12.85;;
52642;SDS011;38531;53.296;6.614;2023-02-23T02:25:01;29.40;;;11.85;;
52642;SDS011;38531;53.296;6.614;2023-02-23T02:38:53;29.85;;;12.38;;
52642;SDS011;38531;53.296;6.614;2023-02-23T02:47:06;31.92;;;12.95;;
52642;SDS011;38531;53.296;6.614;2023-02-23T02:49:37;26.20;;;11.10;;
52642;SDS011;38531;53.296;6.614;2023-02-23T02:52:16;27.92;;;11.43;;
52642;SDS011;38531;53.296;6.614;2023-02-23T02:54:58;26.77;;;10.82;;
52642;SDS011;38531;53.296;6.614;2023-02-23T02:57:33;28.55;;;11.93;;
52642;SDS011;38531;53.296;6.614;2023-02-23T03:00:00;27.23;;;11.68;;
52642;SDS011;38531;53.296;6.614;2023-02-23T03:02:45;27.33;;;11.35;;
52642;SDS011;38531;53.296;6.614;2023-02-23T03:05:44;31.20;;;12.80;;
52642;SDS011;38531;53.296;6.614;2023-02-23T03:08:46;27.13;;;11.50;;
52642;SDS011;38531;53.296;6.614;2023-02-23T03:11:38;29.77;;;12.85;;
52642;SDS011;38531;53.296;6.614;2023-02-23T03:17:23;28.08;;;12.40;;
52642;SDS011;38531;53.296;6.614;2023-02-23T03:23:41;30.15;;;12.10;;
52642;SDS011;38531;53.296;6.614;2023-02-23T03:26:51;30.15;;;11.88;;
52642;SDS011;38531;53.296;6.614;2023-02-23T03:29:42;34.15;;;13.70;;
52642;SDS011;38531;53.296;6.614;2023-02-23T03:32:43;30.88;;;12.88;;
52642;SDS011;38531;53.296;6.614;2023-02-23T03:38:56;30.00;;;12.80;;
52642;SDS011;38531;53.296;6.614;2023-02-23T03:41:51;31.27;;;12.32;;
52642;SDS011;38531;53.296;6.614;2023-02-23T03:47:27;35.28;;;13.02;;
52642;SDS011;38531;53.296;6.614;2023-02-23T03:50:35;26.90;;;11.68;;
52642;SDS011;38531;53.296;6.614;2023-02-23T03:53:24;31.25;;;13.10;;
52642;SDS011;38531;53.296;6.614;2023-02-23T03:56:32;32.72;;;13.27;;
52642;SDS011;38531;53.296;6.614;2023-02-23T03:59:21;32.45;;;14.23;;
52642;SDS011;38531;53.296;6.614;2023-02-23T04:02:09;30.73;;;12.80;;
52642;SDS011;38531;53.296;6.614;2023-02-23T04:04:56;28.42;;;11.95;;
52642;SDS011;38531;53.296;6.614;2023-02-23T04:07:45;32.40;;;12.65;;
52642;SDS011;38531;53.296;6.614;2023-02-23T04:10:33;42.72;;;16.40;;
52642;SDS011;38531;53.296;6.614;2023-02-23T04:13:21;34.47;;;13.57;;
52642;SDS011;38531;53.296;6.614;2023-02-23T04:18:29;29.38;;;12.27;;
52642;SDS011;38531;53.296;6.614;2023-02-23T04:21:00;29.13;;;11.63;;
52642;SDS011;38531;53.296;6.614;2023-02-23T04:23:26;43.08;;;15.95;;
52642;SDS011;38531;53.296;6.614;2023-02-23T04:25:53;34.42;;;13.63;;
52642;SDS011;38531;53.296;6.614;2023-02-23T04:28:20;28.38;;;11.95;;
52642;SDS011;38531;53.296;6.614;2023-02-23T04:30:47;27.80;;;11.77;;
52642;SDS011;38531;53.296;6.614;2023-02-23T04:33:13;25.50;;;10.65;;
52642;SDS011;38531;53.296;6.614;2023-02-23T04:35:40;29.20;;;11.80;;
52642;SDS011;38531;53.296;6.614;2023-02-23T04:38:06;26.83;;;10.55;;
52642;SDS011;38531;53.296;6.614;2023-02-23T04:40:32;31.70;;;11.23;;
52642;SDS011;38531;53.296;6.614;2023-02-23T04:42:58;25.27;;;11.85;;
52642;SDS011;38531;53.296;6.614;2023-02-23T04:45:24;28.48;;;10.40;;
52642;SDS011;38531;53.296;6.614;2023-02-23T04:47:50;26.88;;;11.20;;
52642;SDS011;38531;53.296;6.614;2023-02-23T04:50:17;25.75;;;10.07;;
52642;SDS011;38531;53.296;6.614;2023-02-23T04:52:44;29.27;;;12.63;;
52642;SDS011;38531;53.296;6.614;2023-02-23T04:55:17;28.15;;;10.75;;
52642;SDS011;38531;53.296;6.614;2023-02-23T05:00:11;29.00;;;11.60;;
52642;SDS011;38531;53.296;6.614;2023-02-23T05:02:37;27.60;;;10.48;;
52642;SDS011;38531;53.296;6.614;2023-02-23T05:05:03;25.08;;;11.65;;
52642;SDS011;38531;53.296;6.614;2023-02-23T05:07:29;29.08;;;10.45;;
52642;SDS011;38531;53.296;6.614;2023-02-23T05:09:55;29.67;;;11.52;;
52642;SDS011;38531;53.296;6.614;2023-02-23T05:12:21;37.72;;;14.63;;
52642;SDS011;38531;53.296;6.614;2023-02-23T05:14:46;43.75;;;17.60;;
52642;SDS011;38531;53.296;6.614;2023-02-23T05:17:12;35.13;;;14.15;;
52642;SDS011;38531;53.296;6.614;2023-02-23T05:19:38;33.55;;;13.55;;
52642;SDS011;38531;53.296;6.614;2023-02-23T05:22:04;32.63;;;12.15;;
52642;SDS011;38531;53.296;6.614;2023-02-23T05:24:29;33.20;;;11.52;;
52642;SDS011;38531;53.296;6.614;2023-02-23T05:26:55;26.55;;;10.70;;
52642;SDS011;38531;53.296;6.614;2023-02-23T05:29:23;29.10;;;11.05;;
52642;SDS011;38531;53.296;6.614;2023-02-23T05:31:49;27.83;;;11.93;;
52642;SDS011;38531;53.296;6.614;2023-02-23T05:34:14;22.88;;;9.65;;
52642;SDS011;38531;53.296;6.614;2023-02-23T05:36:43;24.58;;;11.00;;
52642;SDS011;38531;53.296;6.614;2023-02-23T05:39:09;33.40;;;12.55;;
52642;SDS011;38531;53.296;6.614;2023-02-23T05:41:34;32.60;;;12.07;;
52642;SDS011;38531;53.296;6.614;2023-02-23T05:44:00;29.73;;;11.35;;
52642;SDS011;38531;53.296;6.614;2023-02-23T05:46:29;28.23;;;11.00;;
52642;SDS011;38531;53.296;6.614;2023-02-23T05:48:55;29.88;;;13.10;;
52642;SDS011;38531;53.296;6.614;2023-02-23T05:51:23;22.40;;;10.00;;
52642;SDS011;38531;53.296;6.614;2023-02-23T05:53:49;23.95;;;9.65;;
52642;SDS011;38531;53.296;6.614;2023-02-23T05:56:16;24.75;;;9.65;;
52642;SDS011;38531;53.296;6.614;2023-02-23T05:58:45;22.38;;;10.02;;
52642;SDS011;38531;53.296;6.614;2023-02-23T06:01:11;24.25;;;9.65;;
52642;SDS011;38531;53.296;6.614;2023-02-23T06:03:37;22.48;;;9.40;;
52642;SDS011;38531;53.296;6.614;2023-02-23T06:06:03;20.42;;;9.32;;
52642;SDS011;38531;53.296;6.614;2023-02-23T06:08:32;27.30;;;11.50;;
52642;SDS011;38531;53.296;6.614;2023-02-23T06:10:58;22.15;;;8.95;;
52642;SDS011;38531;53.296;6.614;2023-02-23T06:13:24;19.10;;;7.65;;
52642;SDS011;38531;53.296;6.614;2023-02-23T06:15:51;22.42;;;8.35;;
52642;SDS011;38531;53.296;6.614;2023-02-23T06:18:16;22.92;;;8.63;;
52642;SDS011;38531;53.296;6.614;2023-02-23T06:20:42;25.25;;;9.50;;
52642;SDS011;38531;53.296;6.614;2023-02-23T06:23:09;21.33;;;9.43;;
52642;SDS011;38531;53.296;6.614;2023-02-23T06:25:36;16.48;;;7.20;;
52642;SDS011;38531;53.296;6.614;2023-02-23T06:28:02;17.35;;;7.13;;
52642;SDS011;38531;53.296;6.614;2023-02-23T06:30:28;15.07;;;6.57;;
52642;SDS011;38531;53.296;6.614;2023-02-23T06:32:54;16.15;;;7.50;;
52642;SDS011;38531;53.296;6.614;2023-02-23T06:35:19;14.48;;;6.15;;
52642;SDS011;38531;53.296;6.614;2023-02-23T06:37:45;16.67;;;6.80;;
52642;SDS011;38531;53.296;6.614;2023-02-23T06:40:11;16.38;;;7.82;;
52642;SDS011;38531;53.296;6.614;2023-02-23T06:42:37;19.17;;;7.53;;
52642;SDS011;38531;53.296;6.614;2023-02-23T06:45:03;20.00;;;9.05;;
52642;SDS011;38531;53.296;6.614;2023-02-23T06:47:29;16.83;;;7.85;;
52642;SDS011;38531;53.296;6.614;2023-02-23T06:49:56;24.65;;;9.50;;
52642;SDS011;38531;53.296;6.614;2023-02-23T06:52:23;19.70;;;8.68;;
52642;SDS011;38531;53.296;6.614;2023-02-23T06:54:49;23.25;;;10.05;;
52642;SDS011;38531;53.296;6.614;2023-02-23T06:57:16;20.60;;;8.13;;
52642;SDS011;38531;53.296;6.614;2023-02-23T06:59:42;22.20;;;9.93;;
52642;SDS011;38531;53.296;6.614;2023-02-23T07:02:09;21.20;;;9.30;;
52642;SDS011;38531;53.296;6.614;2023-02-23T07:04:36;18.30;;;8.73;;
52642;SDS011;38531;53.296;6.614;2023-02-23T07:07:02;17.33;;;6.93;;
52642;SDS011;38531;53.296;6.614;2023-02-23T07:09:28;14.73;;;6.63;;
52642;SDS011;38531;53.296;6.614;2023-02-23T07:11:54;12.85;;;6.00;;
52642;SDS011;38531;53.296;6.614;2023-02-23T07:14:20;12.88;;;6.22;;
52642;SDS011;38531;53.296;6.614;2023-02-23T07:16:48;11.68;;;5.30;;
52642;SDS011;38531;53.296;6.614;2023-02-23T07:19:14;12.40;;;5.70;;
52642;SDS011;38531;53.296;6.614;2023-02-23T07:21:40;15.13;;;7.82;;
52642;SDS011;38531;53.296;6.614;2023-02-23T07:24:06;17.75;;;8.27;;
52642;SDS011;38531;53.296;6.614;2023-02-23T07:26:33;18.95;;;8.27;;
52642;SDS011;38531;53.296;6.614;2023-02-23T07:28:59;20.67;;;9.10;;
52642;SDS011;38531;53.296;6.614;2023-02-23T07:31:26;22.30;;;9.23;;
52642;SDS011;38531;53.296;6.614;2023-02-23T07:33:52;22.35;;;10.02;;
52642;SDS011;38531;53.296;6.614;2023-02-23T07:36:22;21.65;;;9.00;;
52642;SDS011;38531;53.296;6.614;2023-02-23T07:38:51;18.38;;;8.77;;
52642;SDS011;38531;53.296;6.614;2023-02-23T07:41:18;21.80;;;10.43;;
52642;SDS011;38531;53.296;6.614;2023-02-23T07:43:44;18.00;;;9.40;;
52642;SDS011;38531;53.296;6.614;2023-02-23T07:46:10;16.63;;;8.20;;
52642;SDS011;38531;53.296;6.614;2023-02-23T07:48:35;15.35;;;7.00;;
52642;SDS011;38531;53.296;6.614;2023-02-23T07:51:07;19.52;;;9.20;;
52642;SDS011;38531;53.296;6.614;2023-02-23T07:53:38;18.80;;;7.43;;
52642;SDS011;38531;53.296;6.614;2023-02-23T07:56:04;19.45;;;8.38;;
52642;SDS011;38531;53.296;6.614;2023-02-23T07:58:30;18.38;;;7.60;;
52642;SDS011;38531;53.296;6.614;2023-02-23T08:00:56;18.70;;;7.68;;
52642;SDS011;38531;53.296;6.614;2023-02-23T08:03:22;16.95;;;6.32;;
52642;SDS011;38531;53.296;6.614;2023-02-23T08:05:48;12.75;;;5.93;;
52642;SDS011;38531;53.296;6.614;2023-02-23T08:08:14;22.08;;;8.85;;
52642;SDS011;38531;53.296;6.614;2023-02-23T08:10:40;17.98;;;8.43;;
52642;SDS011;38531;53.296;6.614;2023-02-23T08:13:06;20.92;;;9.75;;
52642;SDS011;38531;53.296;6.614;2023-02-23T08:15:32;20.95;;;9.35;;
52642;SDS011;38531;53.296;6.614;2023-02-23T08:17:58;17.13;;;7.32;;
52642;SDS011;38531;53.296;6.614;2023-02-23T08:20:23;18.40;;;7.95;;
52642;SDS011;38531;53.296;6.614;2023-02-23T08:22:53;17.73;;;8.05;;
52642;SDS011;38531;53.296;6.614;2023-02-23T08:25:19;16.42;;;6.85;;
52642;SDS011;38531;53.296;6.614;2023-02-23T08:27:45;14.98;;;5.95;;
52642;SDS011;38531;53.296;6.614;2023-02-23T08:30:11;17.27;;;8.05;;
52642;SDS011;38531;53.296;6.614;2023-02-23T08:32:38;20.27;;;8.85;;
52642;SDS011;38531;53.296;6.614;2023-02-23T08:35:04;17.17;;;8.50;;
52642;SDS011;38531;53.296;6.614;2023-02-23T08:37:32;16.08;;;6.63;;
52642;SDS011;38531;53.296;6.614;2023-02-23T08:39:58;16.33;;;6.68;;
52642;SDS011;38531;53.296;6.614;2023-02-23T08:42:25;15.60;;;6.70;;
52642;SDS011;38531;53.296;6.614;2023-02-23T08:44:52;11.48;;;5.72;;
52642;SDS011;38531;53.296;6.614;2023-02-23T08:47:18;17.63;;;8.07;;
52642;SDS011;38531;53.296;6.614;2023-02-23T08:49:50;20.08;;;7.00;;
52642;SDS011;38531;53.296;6.614;2023-02-23T08:52:18;13.27;;;5.30;;
52642;SDS011;38531;53.296;6.614;2023-02-23T08:54:45;18.50;;;7.45;;
52642;SDS011;38531;53.296;6.614;2023-02-23T08:57:11;19.77;;;8.50;;
52642;SDS011;38531;53.296;6.614;2023-02-23T08:59:37;13.27;;;6.68;;
52642;SDS011;38531;53.296;6.614;2023-02-23T09:02:05;13.88;;;6.28;;
52642;SDS011;38531;53.296;6.614;2023-02-23T09:04:38;14.10;;;5.90;;
52642;SDS011;38531;53.296;6.614;2023-02-23T09:07:08;12.93;;;5.63;;
52642;SDS011;38531;53.296;6.614;2023-02-23T09:09:38;15.43;;;6.50;;
52642;SDS011;38531;53.296;6.614;2023-02-23T09:12:07;14.73;;;6.80;;
52642;SDS011;38531;53.296;6.614;2023-02-23T09:14:33;15.43;;;6.93;;
52642;SDS011;38531;53.296;6.614;2023-02-23T09:17:00;19.00;;;7.20;;
52642;SDS011;38531;53.296;6.614;2023-02-23T09:19:26;13.73;;;6.25;;
52642;SDS011;38531;53.296;6.614;2023-02-23T09:21:52;11.05;;;5.47;;
52642;SDS011;38531;53.296;6.614;2023-02-23T09:24:20;12.43;;;5.47;;
52642;SDS011;38531;53.296;6.614;2023-02-23T09:26:46;16.42;;;7.22;;
52642;SDS011;38531;53.296;6.614;2023-02-23T09:29:13;17.20;;;7.05;;
52642;SDS011;38531;53.296;6.614;2023-02-23T09:31:39;14.40;;;6.32;;
52642;SDS011;38531;53.296;6.614;2023-02-23T09:34:07;19.70;;;8.88;;
52642;SDS011;38531;53.296;6.614;2023-02-23T09:36:34;27.73;;;10.65;;
52642;SDS011;38531;53.296;6.614;2023-02-23T09:39:02;30.58;;;11.93;;
52642;SDS011;38531;53.296;6.614;2023-02-23T09:41:41;34.28;;;11.70;;
52642;SDS011;38531;53.296;6.614;2023-02-23T09:49:27;36.88;;;13.90;;
52642;SDS011;38531;53.296;6.614;2023-02-23T09:51:57;44.35;;;14.63;;
52642;SDS011;38531;53.296;6.614;2023-02-23T09:54:29;38.63;;;13.63;;
52642;SDS011;38531;53.296;6.614;2023-02-23T09:56:59;49.28;;;16.20;;
52642;SDS011;38531;53.296;6.614;2023-02-23T09:59:33;53.78;;;18.92;;
52642;SDS011;38531;53.296;6.614;2023-02-23T10:02:04;61.83;;;19.92;;
52642;SDS011;38531;53.296;6.614;2023-02-23T10:04:38;45.45;;;15.38;;
52642;SDS011;38531;53.296;6.614;2023-02-23T10:12:39;48.75;;;16.10;;
52642;SDS011;38531;53.296;6.614;2023-02-23T10:18:42;52.50;;;15.93;;
52642;SDS011;38531;53.296;6.614;2023-02-23T10:23:38;63.42;;;17.33;;
52642;SDS011;38531;53.296;6.614;2023-02-23T10:26:11;52.70;;;14.57;;
52642;SDS011;38531;53.296;6.614;2023-02-23T10:28:46;46.35;;;13.05;;
52642;SDS011;38531;53.296;6.614;2023-02-23T10:31:20;46.95;;;14.02;;
52642;SDS011;38531;53.296;6.614;2023-02-23T10:33:56;47.28;;;12.90;;
52642;SDS011;38531;53.296;6.614;2023-02-23T10:36:30;42.60;;;11.95;;
52642;SDS011;38531;53.296;6.614;2023-02-23T10:39:05;49.63;;;12.05;;
52642;SDS011;38531;53.296;6.614;2023-02-23T10:41:33;40.28;;;11.70;;
52642;SDS011;38531;53.296;6.614;2023-02-23T10:44:00;44.67;;;11.20;;
52642;SDS011;38531;53.296;6.614;2023-02-23T10:46:30;50.22;;;12.52;;
52642;SDS011;38531;53.296;6.614;2023-02-23T10:49:02;43.58;;;11.65;;
52642;SDS011;38531;53.296;6.614;2023-02-23T10:51:29;40.60;;;10.95;;
52642;SDS011;38531;53.296;6.614;2023-02-23T10:54:22;45.83;;;12.98;;
52642;SDS011;38531;53.296;6.614;2023-02-23T10:57:04;45.92;;;13.32;;
52642;SDS011;38531;53.296;6.614;2023-02-23T10:59:32;34.58;;;9.98;;
52642;SDS011;38531;53.296;6.614;2023-02-23T11:02:03;44.92;;;12.05;;
52642;SDS011;38531;53.296;6.614;2023-02-23T11:04:49;41.17;;;12.30;;
52642;SDS011;38531;53.296;6.614;2023-02-23T11:07:26;41.70;;;11.13;;
52642;SDS011;38531;53.296;6.614;2023-02-23T11:12:40;41.67;;;12.32;;
52642;SDS011;38531;53.296;6.614;2023-02-23T11:17:54;41.75;;;11.48;;
52642;SDS011;38531;53.296;6.614;2023-02-23T11:20:23;48.05;;;11.93;;
52642;SDS011;38531;53.296;6.614;2023-02-23T11:22:54;36.35;;;10.55;;
52642;SDS011;38531;53.296;6.614;2023-02-23T11:25:26;57.50;;;14.30;;
52642;SDS011;38531;53.296;6.614;2023-02-23T11:27:53;56.15;;;14.57;;
52642;SDS011;38531;53.296;6.614;2023-02-23T11:30:25;62.53;;;16.65;;
52642;SDS011;38531;53.296;6.614;2023-02-23T11:32:59;58.00;;;15.50;;
52642;SDS011;38531;53.296;6.614;2023-02-23T11:35:44;58.00;;;14.50;;
52642;SDS011;38531;53.296;6.614;2023-02-23T11:38:24;59.78;;;15.45;;
52642;SDS011;38531;53.296;6.614;2023-02-23T11:43:25;61.08;;;17.05;;
52642;SDS011;38531;53.296;6.614;2023-02-23T11:45:52;79.72;;;20.52;;
52642;SDS011;38531;53.296;6.614;2023-02-23T11:51:01;80.20;;;20.17;;
52642;SDS011;38531;53.296;6.614;2023-02-23T11:53:35;66.03;;;18.58;;
52642;SDS011;38531;53.296;6.614;2023-02-23T11:56:09;56.97;;;17.80;;
52642;SDS011;38531;53.296;6.614;2023-02-23T11:58:46;77.43;;;20.35;;
52642;SDS011;38531;53.296;6.614;2023-02-23T12:01:37;77.53;;;21.73;;
52642;SDS011;38531;53.296;6.614;2023-02-23T12:04:08;85.70;;;21.63;;
52642;SDS011;38531;53.296;6.614;2023-02-23T12:06:48;80.68;;;20.88;;
52642;SDS011;38531;53.296;6.614;2023-02-23T12:09:19;70.43;;;18.80;;
52642;SDS011;38531;53.296;6.614;2023-02-23T12:12:01;74.25;;;19.88;;
52642;SDS011;38531;53.296;6.614;2023-02-23T12:14:36;71.93;;;18.88;;
52642;SDS011;38531;53.296;6.614;2023-02-23T12:17:17;76.20;;;20.67;;
52642;SDS011;38531;53.296;6.614;2023-02-23T12:22:32;51.90;;;15.55;;
52642;SDS011;38531;53.296;6.614;2023-02-23T12:25:24;69.22;;;19.17;;
52642;SDS011;38531;53.296;6.614;2023-02-23T12:30:59;86.18;;;21.55;;
52642;SDS011;38531;53.296;6.614;2023-02-23T12:33:39;72.28;;;19.42;;
52642;SDS011;38531;53.296;6.614;2023-02-23T12:41:58;67.47;;;17.63;;
52642;SDS011;38531;53.296;6.614;2023-02-23T12:47:26;40.25;;;13.20;;
52642;SDS011;38531;53.296;6.614;2023-02-23T12:50:02;33.83;;;10.50;;
52642;SDS011;38531;53.296;6.614;2023-02-23T12:55:24;17.63;;;4.30;;
52642;SDS011;38531;53.296;6.614;2023-02-23T12:58:09;20.60;;;2.33;;
52642;SDS011;38531;53.296;6.614;2023-02-23T13:06:10;22.70;;;2.92;;
52642;SDS011;38531;53.296;6.614;2023-02-23T13:11:44;22.48;;;2.63;;
52642;SDS011;38531;53.296;6.614;2023-02-23T13:14:42;21.00;;;2.80;;
52642;SDS011;38531;53.296;6.614;2023-02-23T13:17:30;25.13;;;3.47;;
52642;SDS011;38531;53.296;6.614;2023-02-23T13:20:06;21.52;;;2.67;;
52642;SDS011;38531;53.296;6.614;2023-02-23T13:22:39;31.23;;;3.03;;
52642;SDS011;38531;53.296;6.614;2023-02-23T13:25:38;23.70;;;3.47;;
52642;SDS011;38531;53.296;6.614;2023-02-23T13:28:16;29.20;;;3.70;;
52642;SDS011;38531;53.296;6.614;2023-02-23T13:30:46;30.27;;;4.40;;
52642;SDS011;38531;53.296;6.614;2023-02-23T13:33:17;28.50;;;4.30;;
52642;SDS011;38531;53.296;6.614;2023-02-23T13:35:59;24.30;;;4.30;;
52642;SDS011;38531;53.296;6.614;2023-02-23T13:38:30;31.15;;;4.38;;
52642;SDS011;38531;53.296;6.614;2023-02-23T13:41:12;22.75;;;4.07;;
52642;SDS011;38531;53.296;6.614;2023-02-23T13:43:55;15.93;;;2.40;;
52642;SDS011;38531;53.296;6.614;2023-02-23T13:46:34;19.33;;;3.22;;
52642;SDS011;38531;53.296;6.614;2023-02-23T13:55:09;19.63;;;2.72;;
52642;SDS011;38531;53.296;6.614;2023-02-23T13:58:02;24.38;;;2.63;;
52642;SDS011;38531;53.296;6.614;2023-02-23T14:00:31;31.13;;;4.18;;
52642;SDS011;38531;53.296;6.614;2023-02-23T14:03:00;27.00;;;3.20;;
52642;SDS011;38531;53.296;6.614;2023-02-23T14:05:35;12.45;;;2.50;;
52642;SDS011;38531;53.296;6.614;2023-02-23T14:08:07;19.67;;;2.75;;
52642;SDS011;38531;53.296;6.614;2023-02-23T14:11:06;12.25;;;2.42;;
52642;SDS011;38531;53.296;6.614;2023-02-23T14:13:32;16.50;;;1.80;;
52642;SDS011;38531;53.296;6.614;2023-02-23T14:16:07;10.32;;;1.48;;
52642;SDS011;38531;53.296;6.614;2023-02-23T14:18:34;15.10;;;1.98;;
52642;SDS011;38531;53.296;6.614;2023-02-23T14:26:15;18.63;;;1.75;;
52642;SDS011;38531;53.296;6.614;2023-02-23T14:34:30;21.00;;;1.55;;
52642;SDS011;38531;53.296;6.614;2023-02-23T14:37:19;15.65;;;2.03;;
52642;SDS011;38531;53.296;6.614;2023-02-23T14:40:17;20.17;;;2.40;;
52642;SDS011;38531;53.296;6.614;2023-02-23T14:42:56;22.05;;;2.42;;
52642;SDS011;38531;53.296;6.614;2023-02-23T14:45:25;22.85;;;1.50;;
52642;SDS011;38531;53.296;6.614;2023-02-23T14:48:06;13.20;;;1.27;;
52642;SDS011;38531;53.296;6.614;2023-02-23T14:50:42;16.45;;;2.80;;
52642;SDS011;38531;53.296;6.614;2023-02-23T14:53:15;18.88;;;2.35;;
52642;SDS011;38531;53.296;6.614;2023-02-23T14:55:45;11.55;;;1.48;;
52642;SDS011;38531;53.296;6.614;2023-02-23T14:58:46;23.92;;;2.53;;
52642;SDS011;38531;53.296;6.614;2023-02-23T15:01:04;20.13;;;2.72;;
52642;SDS011;38531;53.296;6.614;2023-02-23T15:03:30;22.48;;;2.55;;
52642;SDS011;38531;53.296;6.614;2023-02-23T15:05:57;18.05;;;1.63;;
52642;SDS011;38531;53.296;6.614;2023-02-23T15:08:25;14.18;;;1.85;;
52642;SDS011;38531;53.296;6.614;2023-02-23T15:11:10;18.13;;;2.33;;
52642;SDS011;38531;53.296;6.614;2023-02-23T15:13:39;11.40;;;2.03;;
52642;SDS011;38531;53.296;6.614;2023-02-23T15:16:14;13.73;;;1.80;;
52642;SDS011;38531;53.296;6.614;2023-02-23T15:18:47;12.38;;;2.25;;
52642;SDS011;38531;53.296;6.614;2023-02-23T15:21:19;17.08;;;1.80;;
52642;SDS011;38531;53.296;6.614;2023-02-23T15:23:49;14.52;;;1.98;;
52642;SDS011;38531;53.296;6.614;2023-02-23T15:26:34;12.68;;;1.52;;
52642;SDS011;38531;53.296;6.614;2023-02-23T15:29:05;11.48;;;1.50;;
52642;SDS011;38531;53.296;6.614;2023-02-23T15:31:31;12.70;;;1.73;;
52642;SDS011;38531;53.296;6.614;2023-02-23T15:33:58;15.68;;;1.50;;
52642;SDS011;38531;53.296;6.614;2023-02-23T15:36:28;19.58;;;1.95;;
52642;SDS011;38531;53.296;6.614;2023-02-23T15:38:59;15.20;;;1.52;;
52642;SDS011;38531;53.296;6.614;2023-02-23T15:41:33;11.43;;;1.27;;
52642;SDS011;38531;53.296;6.614;2023-02-23T15:44:13;15.38;;;1.95;;
52642;SDS011;38531;53.296;6.614;2023-02-23T15:46:48;13.50;;;1.33;;
52642;SDS011;38531;53.296;6.614;2023-02-23T15:49:19;10.57;;;1.17;;
52642;SDS011;38531;53.296;6.614;2023-02-23T15:51:49;10.60;;;1.10;;
52642;SDS011;38531;53.296;6.614;2023-02-23T15:56:56;9.18;;;1.30;;
52642;SDS011;38531;53.296;6.614;2023-02-23T15:59:28;8.23;;;1.10;;
52642;SDS011;38531;53.296;6.614;2023-02-23T16:01:58;5.88;;;1.00;;
52642;SDS011;38531;53.296;6.614;2023-02-23T16:04:37;9.50;;;1.40;;
52642;SDS011;38531;53.296;6.614;2023-02-23T16:09:49;11.10;;;0.95;;
52642;SDS011;38531;53.296;6.614;2023-02-23T16:12:29;8.85;;;1.70;;
52642;SDS011;38531;53.296;6.614;2023-02-23T16:15:00;5.20;;;0.85;;
52642;SDS011;38531;53.296;6.614;2023-02-23T16:17:33;16.02;;;1.90;;
52642;SDS011;38531;53.296;6.614;2023-02-23T16:23:01;5.78;;;0.73;;
52642;SDS011;38531;53.296;6.614;2023-02-23T16:25:27;8.98;;;1.40;;
52642;SDS011;38531;53.296;6.614;2023-02-23T16:28:02;7.05;;;1.52;;
52642;SDS011;38531;53.296;6.614;2023-02-23T16:30:40;9.43;;;0.93;;
52642;SDS011;38531;53.296;6.614;2023-02-23T16:35:44;7.30;;;1.10;;
52642;SDS011;38531;53.296;6.614;2023-02-23T16:38:13;9.15;;;1.25;;
52642;SDS011;38531;53.296;6.614;2023-02-23T16:40:46;11.02;;;1.33;;
52642;SDS011;38531;53.296;6.614;2023-02-23T16:43:13;8.60;;;1.40;;
52642;SDS011;38531;53.296;6.614;2023-02-23T16:45:40;7.95;;;1.15;;
52642;SDS011;38531;53.296;6.614;2023-02-23T16:48:16;5.28;;;1.13;;
52642;SDS011;38531;53.296;6.614;2023-02-23T16:50:42;8.25;;;0.98;;
52642;SDS011;38531;53.296;6.614;2023-02-23T16:53:10;6.80;;;1.20;;
52642;SDS011;38531;53.296;6.614;2023-02-23T16:55:38;9.48;;;0.93;;
52642;SDS011;38531;53.296;6.614;2023-02-23T16:58:14;6.80;;;0.80;;
52642;SDS011;38531;53.296;6.614;2023-02-23T17:00:43;8.38;;;1.65;;